Monday, December 18, 2017, 7:55 AM EST
Back to Local

KORH, Worcester Regional Airport

Location: Worcester, MA, United States Lat: 42.267
Local Time: 7:55 AM EST (12:55 GMT) Lon: -71.867
Time Zone: US/Eastern Elev: 1010 ft

Show me the last for .
Show Coded

Time T Td Feel RH Dir Speed Gust Alt SLP Vis Weather Sky Remarks
2017-12-18 06:54 21 8 - 56 - Calm - 30.12 30.17 10 OVC014 6-hr Precip Total (7am): 0.00"
6-hr Min Temp (7am): 18.0°F
6-hr Max Temp (7am): 21.0°F
2017-12-18 06:22 21 7 16 53 170° 3 - 30.11 - 10 OVC014 None
2017-12-18 05:54 20 7 12 56 180° 6 - 30.12 30.16 10 OVC015 None
2017-12-18 04:54 20 8 13 59 150° 5 - 30.12 30.17 10 OVC017 1-hr Precip Total: Trace
2017-12-18 04:42 20 8 15 59 140° 3 - 30.12 - 9 -SN BKN018 OVC042 1-hr Precip Total: Trace
2017-12-18 03:54 20 8 - 59 - Calm - 30.14 30.19 10 SCT029 OVC043 None
2017-12-18 03:18 20 7 - 56 - Calm - 30.15 - 10 SCT029 OVC043 None
2017-12-18 02:54 21 8 16 56 70° 3 - 30.16 30.20 10 BKN027 BKN035 OVC042 None
2017-12-18 02:46 20 7 - 56 - Calm - 30.16 - 10 BKN027 BKN042 OVC065 None
2017-12-18 01:54 21 6 15 51 130° 5 - 30.16 30.21 10 SCT050 OVC070 None
2017-12-18 00:54 18 8 - 64 - Calm - 30.15 30.20 10 OVC075 6-hr Min Temp (1am): 18.0°F
6-hr Max Temp (1am): 21.9°F
2017-12-17 23:54 20 2 - 44 - Calm - 30.17 30.22 10 CLR 24-hr Min Temp (12am): 12.9°F
24-hr Max Temp (12am): 25.0°F
2017-12-17 22:54 20 4 - 49 - Calm - 30.19 30.24 10 CLR None
2017-12-17 21:54 19 6 - 56 - Calm - 30.20 30.25 10 CLR None
2017-12-17 20:54 22 3 - 43 - Calm - 30.21 30.26 10 CLR None
2017-12-17 19:54 22 3 17 43 300° 3 - 30.21 30.27 10 CLR None
2017-12-17 18:54 22 2 17 41 320° 3 - 30.20 30.26 10 CLR 6-hr Min Temp (7pm): 21.0°F
6-hr Max Temp (7pm): 25.0°F
2017-12-17 17:54 23 1 - 37 - Calm - 30.19 30.25 10 CLR None
2017-12-17 16:54 22 2 16 41 280° 5 - 30.18 30.24 10 CLR None
2017-12-17 15:54 24 1 15 36 290° 8 - 30.17 30.23 10 CLR None
2017-12-17 14:54 24 1 16 36 300° 7 - 30.16 30.21 10 CLR None
2017-12-17 13:54 24 0 15 34 300° 8 - 30.16 30.21 10 CLR None
2017-12-17 12:54 24 1 14 36 280° 9 - 30.17 30.23 10 CLR 6-hr Min Temp (1pm): 14.0°F
6-hr Max Temp (1pm): 24.1°F
2017-12-17 11:54 23 1 10 37 290° 15 - 30.19 30.24 10 CLR None
2017-12-17 10:54 21 3 7 44 290° 16 - 30.20 30.26 10 CLR None
2017-12-17 09:54 19 4 4 50 290° 18 - 30.21 30.26 10 CLR None
2017-12-17 08:54 17 4 3 55 280° 14 - 30.20 30.26 10 CLR None

Support USWX by starting your Amazon purchase here.